sensor_id;sensor_type;location;lat;lon;timestamp;pressure;altitude;pressure_sealevel;temperature;humidity
12666;BME280;58531;59.050;17.416;2023-07-29T00:01:54;99726.66;;;9.31;100.00
12666;BME280;58531;59.050;17.416;2023-07-29T00:04:21;99727.09;;;9.38;100.00
12666;BME280;58531;59.050;17.416;2023-07-29T00:06:48;99721.75;;;9.38;100.00
12666;BME280;58531;59.050;17.416;2023-07-29T00:09:15;99731.09;;;9.34;100.00
12666;BME280;58531;59.050;17.416;2023-07-29T00:11:43;99728.41;;;9.43;100.00
12666;BME280;58531;59.050;17.416;2023-07-29T00:14:10;99732.09;;;9.45;100.00
12666;BME280;58531;59.050;17.416;2023-07-29T00:16:37;99727.78;;;9.57;100.00
12666;BME280;58531;59.050;17.416;2023-07-29T00:19:04;99722.75;;;9.59;100.00
12666;BME280;58531;59.050;17.416;2023-07-29T00:21:30;99720.66;;;9.63;100.00
12666;BME280;58531;59.050;17.416;2023-07-29T00:23:57;99722.16;;;9.64;100.00
12666;BME280;58531;59.050;17.416;2023-07-29T00:26:26;99720.78;;;9.68;100.00
12666;BME280;58531;59.050;17.416;2023-07-29T00:28:55;99709.53;;;9.64;100.00
12666;BME280;58531;59.050;17.416;2023-07-29T00:31:22;99718.44;;;9.61;100.00
12666;BME280;58531;59.050;17.416;2023-07-29T00:33:49;99713.09;;;9.61;100.00
12666;BME280;58531;59.050;17.416;2023-07-29T00:36:18;99711.03;;;9.56;100.00
12666;BME280;58531;59.050;17.416;2023-07-29T00:38:45;99714.88;;;9.55;100.00
12666;BME280;58531;59.050;17.416;2023-07-29T00:41:12;99713.41;;;9.54;100.00
12666;BME280;58531;59.050;17.416;2023-07-29T00:43:40;99711.66;;;9.51;100.00
12666;BME280;58531;59.050;17.416;2023-07-29T00:46:08;99714.31;;;9.51;100.00
12666;BME280;58531;59.050;17.416;2023-07-29T00:48:36;99721.44;;;9.45;100.00
12666;BME280;58531;59.050;17.416;2023-07-29T00:51:04;99710.22;;;9.41;100.00
12666;BME280;58531;59.050;17.416;2023-07-29T00:53:31;99702.06;;;9.36;100.00
12666;BME280;58531;59.050;17.416;2023-07-29T00:55:58;99700.75;;;9.32;100.00
12666;BME280;58531;59.050;17.416;2023-07-29T00:58:25;99698.09;;;9.23;100.00
12666;BME280;58531;59.050;17.416;2023-07-29T01:00:52;99697.53;;;9.19;100.00
12666;BME280;58531;59.050;17.416;2023-07-29T01:03:21;99700.50;;;9.12;100.00
12666;BME280;58531;59.050;17.416;2023-07-29T01:05:59;99699.47;;;9.09;100.00
12666;BME280;58531;59.050;17.416;2023-07-29T01:08:33;99690.13;;;9.14;100.00
12666;BME280;58531;59.050;17.416;2023-07-29T01:11:17;99687.47;;;9.14;100.00
12666;BME280;58531;59.050;17.416;2023-07-29T01:13:52;99687.75;;;9.16;100.00
12666;BME280;58531;59.050;17.416;2023-07-29T01:16:24;99698.69;;;9.18;100.00
12666;BME280;58531;59.050;17.416;2023-07-29T01:18:54;99686.56;;;9.17;100.00
12666;BME280;58531;59.050;17.416;2023-07-29T01:21:22;99693.97;;;9.13;100.00
12666;BME280;58531;59.050;17.416;2023-07-29T01:23:53;99684.22;;;9.10;100.00
12666;BME280;58531;59.050;17.416;2023-07-29T01:26:24;99678.16;;;9.09;100.00
12666;BME280;58531;59.050;17.416;2023-07-29T01:28:51;99686.75;;;9.13;100.00
12666;BME280;58531;59.050;17.416;2023-07-29T01:31:25;99675.03;;;9.11;100.00
12666;BME280;58531;59.050;17.416;2023-07-29T01:33:57;99684.50;;;9.12;100.00
12666;BME280;58531;59.050;17.416;2023-07-29T01:36:28;99678.00;;;9.13;100.00
12666;BME280;58531;59.050;17.416;2023-07-29T01:38:57;99681.53;;;9.19;100.00
12666;BME280;58531;59.050;17.416;2023-07-29T01:41:24;99678.56;;;9.17;100.00
12666;BME280;58531;59.050;17.416;2023-07-29T01:43:52;99675.78;;;9.11;100.00
12666;BME280;58531;59.050;17.416;2023-07-29T01:46:20;99674.31;;;9.10;100.00
12666;BME280;58531;59.050;17.416;2023-07-29T01:48:47;99673.84;;;9.12;100.00
12666;BME280;58531;59.050;17.416;2023-07-29T01:51:13;99673.56;;;9.10;100.00
12666;BME280;58531;59.050;17.416;2023-07-29T01:53:40;99676.69;;;9.08;100.00
12666;BME280;58531;59.050;17.416;2023-07-29T01:56:08;99675.34;;;9.04;100.00
12666;BME280;58531;59.050;17.416;2023-07-29T01:58:36;99677.13;;;8.98;100.00
12666;BME280;58531;59.050;17.416;2023-07-29T02:01:02;99673.56;;;9.01;100.00
12666;BME280;58531;59.050;17.416;2023-07-29T02:03:29;99683.31;;;9.04;100.00
12666;BME280;58531;59.050;17.416;2023-07-29T02:05:56;99686.59;;;9.08;100.00
12666;BME280;58531;59.050;17.416;2023-07-29T02:08:23;99684.50;;;9.03;100.00
12666;BME280;58531;59.050;17.416;2023-07-29T02:10:50;99680.38;;;9.02;100.00
12666;BME280;58531;59.050;17.416;2023-07-29T02:13:18;99681.25;;;9.08;100.00
12666;BME280;58531;59.050;17.416;2023-07-29T02:15:45;99691.00;;;9.11;100.00
12666;BME280;58531;59.050;17.416;2023-07-29T02:18:11;99688.94;;;9.15;100.00
12666;BME280;58531;59.050;17.416;2023-07-29T02:20:38;99688.34;;;9.20;100.00
12666;BME280;58531;59.050;17.416;2023-07-29T02:23:06;99688.63;;;9.22;100.00
12666;BME280;58531;59.050;17.416;2023-07-29T02:25:35;99681.69;;;9.15;100.00
12666;BME280;58531;59.050;17.416;2023-07-29T02:28:02;99683.91;;;9.08;100.00
12666;BME280;58531;59.050;17.416;2023-07-29T02:30:31;99683.03;;;9.02;100.00
12666;BME280;58531;59.050;17.416;2023-07-29T02:32:58;99674.63;;;9.03;100.00
12666;BME280;58531;59.050;17.416;2023-07-29T02:35:26;99682.72;;;9.09;100.00
12666;BME280;58531;59.050;17.416;2023-07-29T02:37:53;99687.47;;;9.14;100.00
12666;BME280;58531;59.050;17.416;2023-07-29T02:40:20;99677.09;;;9.16;100.00
12666;BME280;58531;59.050;17.416;2023-07-29T02:42:48;99682.44;;;9.16;100.00
12666;BME280;58531;59.050;17.416;2023-07-29T02:45:15;99689.66;;;9.24;100.00
12666;BME280;58531;59.050;17.416;2023-07-29T02:47:43;99684.03;;;9.31;100.00
12666;BME280;58531;59.050;17.416;2023-07-29T02:50:10;99687.84;;;9.39;100.00
12666;BME280;58531;59.050;17.416;2023-07-29T02:52:36;99694.47;;;9.52;100.00
12666;BME280;58531;59.050;17.416;2023-07-29T02:55:04;99692.53;;;9.62;100.00
12666;BME280;58531;59.050;17.416;2023-07-29T02:57:31;99691.28;;;9.72;100.00
12666;BME280;58531;59.050;17.416;2023-07-29T02:59:58;99694.38;;;9.79;100.00
12666;BME280;58531;59.050;17.416;2023-07-29T03:02:24;99684.00;;;9.81;100.00
12666;BME280;58531;59.050;17.416;2023-07-29T03:04:53;99689.00;;;9.88;100.00
12666;BME280;58531;59.050;17.416;2023-07-29T03:07:19;99681.41;;;9.96;100.00
12666;BME280;58531;59.050;17.416;2023-07-29T03:09:46;99682.41;;;10.07;100.00
12666;BME280;58531;59.050;17.416;2023-07-29T03:12:13;99688.88;;;10.15;100.00
12666;BME280;58531;59.050;17.416;2023-07-29T03:14:40;99685.69;;;10.26;100.00
12666;BME280;58531;59.050;17.416;2023-07-29T03:17:07;99684.31;;;10.39;100.00
12666;BME280;58531;59.050;17.416;2023-07-29T03:19:34;99688.94;;;10.53;100.00
12666;BME280;58531;59.050;17.416;2023-07-29T03:22:03;99696.16;;;10.61;100.00
12666;BME280;58531;59.050;17.416;2023-07-29T03:24:29;99692.84;;;10.66;100.00
12666;BME280;58531;59.050;17.416;2023-07-29T03:26:56;99693.50;;;10.76;100.00
12666;BME280;58531;59.050;17.416;2023-07-29T03:29:23;99693.09;;;10.92;100.00
12666;BME280;58531;59.050;17.416;2023-07-29T03:31:50;99683.88;;;11.07;100.00
12666;BME280;58531;59.050;17.416;2023-07-29T03:34:17;99695.84;;;11.26;100.00
12666;BME280;58531;59.050;17.416;2023-07-29T03:36:43;99697.34;;;11.42;100.00
12666;BME280;58531;59.050;17.416;2023-07-29T03:39:14;99696.22;;;11.48;100.00
12666;BME280;58531;59.050;17.416;2023-07-29T03:41:41;99692.16;;;11.53;100.00
12666;BME280;58531;59.050;17.416;2023-07-29T03:44:08;99695.69;;;11.59;100.00
12666;BME280;58531;59.050;17.416;2023-07-29T03:46:34;99690.47;;;11.84;100.00
12666;BME280;58531;59.050;17.416;2023-07-29T03:49:01;99696.16;;;12.06;100.00
12666;BME280;58531;59.050;17.416;2023-07-29T03:51:28;99694.91;;;12.21;100.00
12666;BME280;58531;59.050;17.416;2023-07-29T03:53:56;99695.97;;;12.49;100.00
12666;BME280;58531;59.050;17.416;2023-07-29T03:56:24;99696.09;;;12.60;100.00
12666;BME280;58531;59.050;17.416;2023-07-29T03:58:52;99694.28;;;12.92;100.00
12666;BME280;58531;59.050;17.416;2023-07-29T04:01:19;99694.47;;;14.01;100.00
12666;BME280;58531;59.050;17.416;2023-07-29T04:03:46;99700.81;;;15.36;100.00
12666;BME280;58531;59.050;17.416;2023-07-29T04:06:13;99704.09;;;16.41;100.00
12666;BME280;58531;59.050;17.416;2023-07-29T04:08:40;99711.81;;;17.52;100.00
12666;BME280;58531;59.050;17.416;2023-07-29T04:11:07;99720.81;;;18.13;100.00
12666;BME280;58531;59.050;17.416;2023-07-29T04:13:35;99716.91;;;18.94;100.00
12666;BME280;58531;59.050;17.416;2023-07-29T04:16:03;99726.19;;;19.16;100.00
12666;BME280;58531;59.050;17.416;2023-07-29T04:18:30;99719.50;;;20.12;100.00
12666;BME280;58531;59.050;17.416;2023-07-29T04:20:56;99724.81;;;21.02;100.00
12666;BME280;58531;59.050;17.416;2023-07-29T04:23:23;99730.78;;;21.54;91.58
12666;BME280;58531;59.050;17.416;2023-07-29T04:25:50;99732.00;;;22.22;97.55
12666;BME280;58531;59.050;17.416;2023-07-29T04:28:17;99720.81;;;22.61;90.94
12666;BME280;58531;59.050;17.416;2023-07-29T04:30:45;99723.25;;;22.87;69.23
12666;BME280;58531;59.050;17.416;2023-07-29T04:33:12;99725.75;;;23.73;85.15
12666;BME280;58531;59.050;17.416;2023-07-29T04:35:39;99725.59;;;23.56;75.33
12666;BME280;58531;59.050;17.416;2023-07-29T04:38:05;99725.44;;;23.69;68.05
12666;BME280;58531;59.050;17.416;2023-07-29T04:40:32;99728.31;;;24.15;63.38
12666;BME280;58531;59.050;17.416;2023-07-29T04:43:00;99728.66;;;24.27;58.76
12666;BME280;58531;59.050;17.416;2023-07-29T04:45:28;99735.59;;;24.05;57.56
12666;BME280;58531;59.050;17.416;2023-07-29T04:47:56;99728.19;;;24.60;54.56
12666;BME280;58531;59.050;17.416;2023-07-29T04:50:23;99729.19;;;24.33;57.13
12666;BME280;58531;59.050;17.416;2023-07-29T04:52:50;99731.09;;;24.62;54.46
12666;BME280;58531;59.050;17.416;2023-07-29T04:55:18;99730.06;;;24.50;53.44
12666;BME280;58531;59.050;17.416;2023-07-29T04:57:45;99726.06;;;24.51;55.64
12666;BME280;58531;59.050;17.416;2023-07-29T05:00:12;99727.03;;;24.78;54.54
12666;BME280;58531;59.050;17.416;2023-07-29T05:02:39;99728.09;;;25.95;51.45
12666;BME280;58531;59.050;17.416;2023-07-29T05:05:08;99738.50;;;26.48;48.48
12666;BME280;58531;59.050;17.416;2023-07-29T05:07:34;99745.03;;;27.12;47.43
12666;BME280;58531;59.050;17.416;2023-07-29T05:10:01;99742.13;;;27.37;46.93
12666;BME280;58531;59.050;17.416;2023-07-29T05:12:28;99738.19;;;27.30;48.02
12666;BME280;58531;59.050;17.416;2023-07-29T05:14:55;99743.97;;;27.08;47.82
12666;BME280;58531;59.050;17.416;2023-07-29T05:17:22;99745.06;;;26.78;49.44
12666;BME280;58531;59.050;17.416;2023-07-29T05:19:49;99744.72;;;27.08;49.05
12666;BME280;58531;59.050;17.416;2023-07-29T05:22:17;99749.94;;;26.70;49.39
12666;BME280;58531;59.050;17.416;2023-07-29T05:24:43;99742.59;;;27.52;47.41
12666;BME280;58531;59.050;17.416;2023-07-29T05:27:10;99741.47;;;27.55;47.54
12666;BME280;58531;59.050;17.416;2023-07-29T05:29:37;99741.28;;;27.44;47.83
12666;BME280;58531;59.050;17.416;2023-07-29T05:32:05;99737.66;;;27.41;48.45
12666;BME280;58531;59.050;17.416;2023-07-29T05:34:31;99743.03;;;26.52;50.48
12666;BME280;58531;59.050;17.416;2023-07-29T05:36:58;99736.88;;;27.31;48.08
12666;BME280;58531;59.050;17.416;2023-07-29T05:39:26;99733.00;;;27.34;49.44
12666;BME280;58531;59.050;17.416;2023-07-29T05:41:53;99741.66;;;28.69;45.78
12666;BME280;58531;59.050;17.416;2023-07-29T05:44:20;99745.50;;;29.53;43.85
12666;BME280;58531;59.050;17.416;2023-07-29T05:46:47;99747.28;;;28.71;44.85
12666;BME280;58531;59.050;17.416;2023-07-29T05:49:14;99745.16;;;27.76;47.51
12666;BME280;58531;59.050;17.416;2023-07-29T05:51:40;99740.19;;;27.66;47.04
12666;BME280;58531;59.050;17.416;2023-07-29T05:54:07;99743.91;;;28.82;45.49
12666;BME280;58531;59.050;17.416;2023-07-29T05:56:35;99737.16;;;28.64;45.53
12666;BME280;58531;59.050;17.416;2023-07-29T05:59:02;99733.44;;;28.40;45.11
12666;BME280;58531;59.050;17.416;2023-07-29T06:01:29;99745.97;;;28.91;43.66
12666;BME280;58531;59.050;17.416;2023-07-29T06:03:56;99739.75;;;28.81;43.94
12666;BME280;58531;59.050;17.416;2023-07-29T06:06:22;99745.28;;;28.62;44.15
12666;BME280;58531;59.050;17.416;2023-07-29T06:08:50;99734.72;;;28.49;45.52
12666;BME280;58531;59.050;17.416;2023-07-29T06:11:16;99737.91;;;28.55;43.54
12666;BME280;58531;59.050;17.416;2023-07-29T06:13:46;99737.38;;;27.73;46.72
12666;BME280;58531;59.050;17.416;2023-07-29T06:16:13;99739.19;;;28.54;44.53
12666;BME280;58531;59.050;17.416;2023-07-29T06:18:40;99734.13;;;28.60;43.67
12666;BME280;58531;59.050;17.416;2023-07-29T06:21:07;99740.81;;;29.25;43.63
12666;BME280;58531;59.050;17.416;2023-07-29T06:23:37;99741.78;;;28.80;43.58
12666;BME280;58531;59.050;17.416;2023-07-29T06:26:03;99735.13;;;29.32;43.51
12666;BME280;58531;59.050;17.416;2023-07-29T06:28:32;99737.47;;;29.87;41.37
12666;BME280;58531;59.050;17.416;2023-07-29T06:31:00;99736.03;;;29.25;43.56
12666;BME280;58531;59.050;17.416;2023-07-29T06:33:27;99739.22;;;29.62;41.03
12666;BME280;58531;59.050;17.416;2023-07-29T06:35:54;99730.25;;;28.53;43.75
12666;BME280;58531;59.050;17.416;2023-07-29T06:38:21;99723.00;;;28.48;43.38
12666;BME280;58531;59.050;17.416;2023-07-29T06:40:48;99742.94;;;28.96;42.91
12666;BME280;58531;59.050;17.416;2023-07-29T06:43:15;99741.47;;;29.04;40.58
12666;BME280;58531;59.050;17.416;2023-07-29T06:45:42;99741.91;;;29.01;43.47
12666;BME280;58531;59.050;17.416;2023-07-29T06:48:10;99733.09;;;28.74;42.81
12666;BME280;58531;59.050;17.416;2023-07-29T06:50:37;99732.25;;;29.91;40.62
12666;BME280;58531;59.050;17.416;2023-07-29T06:53:04;99734.91;;;30.10;40.64
12666;BME280;58531;59.050;17.416;2023-07-29T06:55:30;99742.72;;;30.46;40.75
12666;BME280;58531;59.050;17.416;2023-07-29T06:57:57;99747.47;;;30.55;40.37
12666;BME280;58531;59.050;17.416;2023-07-29T07:00:24;99742.28;;;29.87;41.99
12666;BME280;58531;59.050;17.416;2023-07-29T07:02:51;99740.16;;;30.27;40.10
12666;BME280;58531;59.050;17.416;2023-07-29T07:05:19;99744.25;;;29.96;41.87
12666;BME280;58531;59.050;17.416;2023-07-29T07:07:46;99744.72;;;29.31;42.21
12666;BME280;58531;59.050;17.416;2023-07-29T07:10:13;99750.59;;;29.47;44.98
12666;BME280;58531;59.050;17.416;2023-07-29T07:12:40;99741.31;;;29.02;42.88
12666;BME280;58531;59.050;17.416;2023-07-29T07:15:08;99747.44;;;29.71;40.71
12666;BME280;58531;59.050;17.416;2023-07-29T07:17:35;99746.84;;;30.24;42.02
12666;BME280;58531;59.050;17.416;2023-07-29T07:20:02;99752.31;;;30.66;37.98
12666;BME280;58531;59.050;17.416;2023-07-29T07:22:30;99743.22;;;29.00;40.88
12666;BME280;58531;59.050;17.416;2023-07-29T07:24:57;99750.34;;;29.73;42.66
12666;BME280;58531;59.050;17.416;2023-07-29T07:27:24;99748.41;;;30.06;40.01
12666;BME280;58531;59.050;17.416;2023-07-29T07:29:51;99754.66;;;29.76;41.64
12666;BME280;58531;59.050;17.416;2023-07-29T07:32:18;99748.44;;;28.87;41.79
12666;BME280;58531;59.050;17.416;2023-07-29T07:34:44;99750.50;;;29.26;41.31
12666;BME280;58531;59.050;17.416;2023-07-29T07:37:11;99749.16;;;29.46;44.09
12666;BME280;58531;59.050;17.416;2023-07-29T07:39:39;99751.88;;;29.55;41.48
12666;BME280;58531;59.050;17.416;2023-07-29T07:42:06;99745.88;;;29.68;42.35
12666;BME280;58531;59.050;17.416;2023-07-29T07:44:33;99749.25;;;29.08;45.17
12666;BME280;58531;59.050;17.416;2023-07-29T07:47:00;99744.56;;;29.69;41.82
12666;BME280;58531;59.050;17.416;2023-07-29T07:49:27;99739.16;;;29.01;42.51
12666;BME280;58531;59.050;17.416;2023-07-29T07:51:53;99747.94;;;29.18;43.24
12666;BME280;58531;59.050;17.416;2023-07-29T07:54:20;99743.22;;;28.81;42.79
12666;BME280;58531;59.050;17.416;2023-07-29T07:56:48;99738.44;;;29.00;44.16
12666;BME280;58531;59.050;17.416;2023-07-29T07:59:15;99742.34;;;28.98;42.32
12666;BME280;58531;59.050;17.416;2023-07-29T08:01:42;99740.72;;;29.13;43.16
12666;BME280;58531;59.050;17.416;2023-07-29T08:04:09;99742.53;;;28.62;43.41
12666;BME280;58531;59.050;17.416;2023-07-29T08:06:36;99732.81;;;28.80;43.09
12666;BME280;58531;59.050;17.416;2023-07-29T08:09:03;99738.19;;;29.27;45.42
12666;BME280;58531;59.050;17.416;2023-07-29T08:11:30;99734.28;;;28.62;45.70
12666;BME280;58531;59.050;17.416;2023-07-29T08:13:58;99732.53;;;27.28;48.93
12666;BME280;58531;59.050;17.416;2023-07-29T08:16:25;99735.13;;;26.23;51.26
12666;BME280;58531;59.050;17.416;2023-07-29T08:18:52;99728.31;;;25.41;54.25
12666;BME280;58531;59.050;17.416;2023-07-29T08:21:19;99736.00;;;25.03;55.14
12666;BME280;58531;59.050;17.416;2023-07-29T08:23:46;99736.78;;;24.49;58.54
12666;BME280;58531;59.050;17.416;2023-07-29T08:26:12;99732.66;;;23.74;60.32
12666;BME280;58531;59.050;17.416;2023-07-29T08:28:40;99733.06;;;23.63;62.64
12666;BME280;58531;59.050;17.416;2023-07-29T08:31:08;99734.84;;;23.38;59.63
12666;BME280;58531;59.050;17.416;2023-07-29T08:33:35;99736.69;;;23.65;62.53
12666;BME280;58531;59.050;17.416;2023-07-29T08:36:02;99725.06;;;23.80;61.48
12666;BME280;58531;59.050;17.416;2023-07-29T08:38:30;99736.69;;;23.65;62.12
12666;BME280;58531;59.050;17.416;2023-07-29T08:40:59;99734.50;;;23.49;61.67
12666;BME280;58531;59.050;17.416;2023-07-29T08:43:32;99731.97;;;23.66;63.16
12666;BME280;58531;59.050;17.416;2023-07-29T08:45:59;99729.78;;;23.57;62.98
12666;BME280;58531;59.050;17.416;2023-07-29T08:48:33;99722.31;;;23.35;57.49
12666;BME280;58531;59.050;17.416;2023-07-29T08:51:03;99729.75;;;23.42;61.31
12666;BME280;58531;59.050;17.416;2023-07-29T08:53:31;99725.03;;;23.35;58.55
12666;BME280;58531;59.050;17.416;2023-07-29T08:55:59;99726.84;;;23.32;59.69
12666;BME280;58531;59.050;17.416;2023-07-29T08:58:26;99721.75;;;23.29;60.66
12666;BME280;58531;59.050;17.416;2023-07-29T09:00:54;99715.41;;;23.49;61.86
12666;BME280;58531;59.050;17.416;2023-07-29T09:03:21;99718.88;;;23.57;60.52
12666;BME280;58531;59.050;17.416;2023-07-29T09:05:50;99721.25;;;23.68;61.15
12666;BME280;58531;59.050;17.416;2023-07-29T09:08:17;99722.88;;;23.71;61.22
12666;BME280;58531;59.050;17.416;2023-07-29T09:10:44;99734.16;;;23.60;61.88
12666;BME280;58531;59.050;17.416;2023-07-29T09:13:11;99728.50;;;23.58;59.08
12666;BME280;58531;59.050;17.416;2023-07-29T09:15:38;99725.06;;;23.65;58.31
12666;BME280;58531;59.050;17.416;2023-07-29T09:18:12;99721.63;;;23.94;59.03
12666;BME280;58531;59.050;17.416;2023-07-29T09:20:41;99725.94;;;23.75;55.92
12666;BME280;58531;59.050;17.416;2023-07-29T09:23:10;99720.69;;;23.62;60.68
12666;BME280;58531;59.050;17.416;2023-07-29T09:25:37;99722.53;;;23.82;57.83
12666;BME280;58531;59.050;17.416;2023-07-29T09:28:08;99727.59;;;23.55;55.71
12666;BME280;58531;59.050;17.416;2023-07-29T09:30:36;99722.84;;;23.33;54.88
12666;BME280;58531;59.050;17.416;2023-07-29T09:33:03;99719.13;;;23.01;55.12
12666;BME280;58531;59.050;17.416;2023-07-29T09:35:32;99726.03;;;22.94;60.90
12666;BME280;58531;59.050;17.416;2023-07-29T09:37:59;99720.78;;;23.04;55.43
12666;BME280;58531;59.050;17.416;2023-07-29T09:40:27;99716.66;;;23.18;56.33
12666;BME280;58531;59.050;17.416;2023-07-29T09:42:55;99719.03;;;23.21;53.62
12666;BME280;58531;59.050;17.416;2023-07-29T09:45:23;99727.56;;;23.33;57.67
12666;BME280;58531;59.050;17.416;2023-07-29T09:47:51;99724.31;;;23.42;56.28
12666;BME280;58531;59.050;17.416;2023-07-29T09:50:18;99717.56;;;23.13;54.17
12666;BME280;58531;59.050;17.416;2023-07-29T09:52:46;99724.28;;;23.19;55.62
12666;BME280;58531;59.050;17.416;2023-07-29T09:55:17;99716.13;;;23.34;56.12
12666;BME280;58531;59.050;17.416;2023-07-29T09:57:45;99710.88;;;23.44;57.13
12666;BME280;58531;59.050;17.416;2023-07-29T10:00:13;99713.75;;;23.31;52.45
12666;BME280;58531;59.050;17.416;2023-07-29T10:02:41;99720.28;;;23.20;53.94
12666;BME280;58531;59.050;17.416;2023-07-29T10:05:09;99711.69;;;23.01;52.04
12666;BME280;58531;59.050;17.416;2023-07-29T10:07:37;99724.38;;;22.91;51.85
12666;BME280;58531;59.050;17.416;2023-07-29T10:10:05;99715.78;;;22.80;53.87
12666;BME280;58531;59.050;17.416;2023-07-29T10:12:34;99720.34;;;22.85;55.07
12666;BME280;58531;59.050;17.416;2023-07-29T10:15:03;99716.66;;;23.18;54.45
12666;BME280;58531;59.050;17.416;2023-07-29T10:17:30;99710.69;;;23.42;53.39
12666;BME280;58531;59.050;17.416;2023-07-29T10:20:00;99717.44;;;23.71;53.52
12666;BME280;58531;59.050;17.416;2023-07-29T10:22:29;99713.97;;;23.63;51.36
12666;BME280;58531;59.050;17.416;2023-07-29T10:25:03;99706.16;;;23.52;52.78
12666;BME280;58531;59.050;17.416;2023-07-29T10:27:35;99714.16;;;23.65;51.47
12666;BME280;58531;59.050;17.416;2023-07-29T10:30:07;99707.03;;;23.77;52.17
12666;BME280;58531;59.050;17.416;2023-07-29T10:32:35;99707.63;;;23.68;54.75
12666;BME280;58531;59.050;17.416;2023-07-29T10:35:02;99717.81;;;23.82;52.52
12666;BME280;58531;59.050;17.416;2023-07-29T10:37:29;99700.16;;;23.61;48.07
12666;BME280;58531;59.050;17.416;2023-07-29T10:39:56;99708.31;;;23.68;50.29
12666;BME280;58531;59.050;17.416;2023-07-29T10:42:23;99705.25;;;23.57;51.00
12666;BME280;58531;59.050;17.416;2023-07-29T10:44:51;99701.78;;;23.64;50.58
12666;BME280;58531;59.050;17.416;2023-07-29T10:47:20;99705.06;;;23.70;49.67
12666;BME280;58531;59.050;17.416;2023-07-29T10:49:50;99707.59;;;23.83;50.76
12666;BME280;58531;59.050;17.416;2023-07-29T10:52:28;99712.50;;;23.92;49.95
12666;BME280;58531;59.050;17.416;2023-07-29T10:54:55;99708.50;;;24.00;52.51
12666;BME280;58531;59.050;17.416;2023-07-29T10:57:30;99705.25;;;23.94;51.89
12666;BME280;58531;59.050;17.416;2023-07-29T10:59:58;99707.97;;;23.94;51.47
12666;BME280;58531;59.050;17.416;2023-07-29T11:02:30;99710.88;;;23.89;49.78
12666;BME280;58531;59.050;17.416;2023-07-29T11:04:58;99712.50;;;23.92;49.54
12666;BME280;58531;59.050;17.416;2023-07-29T11:07:26;99702.50;;;24.01;49.59
12666;BME280;58531;59.050;17.416;2023-07-29T11:09:58;99705.22;;;24.16;51.10
12666;BME280;58531;59.050;17.416;2023-07-29T11:12:43;99703.94;;;24.17;50.56
12666;BME280;58531;59.050;17.416;2023-07-29T11:15:16;99700.28;;;24.15;47.16
12666;BME280;58531;59.050;17.416;2023-07-29T11:17:45;99711.94;;;24.08;48.70
12666;BME280;58531;59.050;17.416;2023-07-29T11:20:14;99707.22;;;24.08;48.78
12666;BME280;58531;59.050;17.416;2023-07-29T11:22:41;99710.50;;;23.99;48.32
12666;BME280;58531;59.050;17.416;2023-07-29T11:25:10;99714.88;;;23.95;47.68
12666;BME280;58531;59.050;17.416;2023-07-29T11:27:37;99709.03;;;24.06;47.83
12666;BME280;58531;59.050;17.416;2023-07-29T11:30:06;99711.41;;;24.09;48.77
12666;BME280;58531;59.050;17.416;2023-07-29T11:32:34;99703.56;;;24.13;47.56
12666;BME280;58531;59.050;17.416;2023-07-29T11:35:04;99701.19;;;24.17;48.34
12666;BME280;58531;59.050;17.416;2023-07-29T11:37:33;99707.56;;;24.12;48.76
12666;BME280;58531;59.050;17.416;2023-07-29T11:40:00;99708.88;;;23.97;47.49
12666;BME280;58531;59.050;17.416;2023-07-29T11:42:27;99709.03;;;24.13;47.54
12666;BME280;58531;59.050;17.416;2023-07-29T11:44:56;99700.31;;;23.78;46.88
12666;BME280;58531;59.050;17.416;2023-07-29T11:47:23;99694.53;;;23.81;48.65
12666;BME280;58531;59.050;17.416;2023-07-29T11:49:51;99703.06;;;23.93;46.60
12666;BME280;58531;59.050;17.416;2023-07-29T11:52:19;99706.50;;;23.78;46.80
12666;BME280;58531;59.050;17.416;2023-07-29T11:54:48;99700.31;;;23.93;47.95
12666;BME280;58531;59.050;17.416;2023-07-29T11:57:16;99703.25;;;23.95;46.17
12666;BME280;58531;59.050;17.416;2023-07-29T11:59:43;99704.50;;;24.01;46.00
12666;BME280;58531;59.050;17.416;2023-07-29T12:02:12;99700.50;;;24.02;47.21
12666;BME280;58531;59.050;17.416;2023-07-29T12:04:41;99704.50;;;23.94;46.75
12666;BME280;58531;59.050;17.416;2023-07-29T12:07:08;99704.84;;;24.12;48.12
12666;BME280;58531;59.050;17.416;2023-07-29T12:09:37;99705.03;;;24.14;46.36
12666;BME280;58531;59.050;17.416;2023-07-29T12:12:05;99695.94;;;23.97;45.01
12666;BME280;58531;59.050;17.416;2023-07-29T12:14:33;99703.59;;;23.98;47.60
12666;BME280;58531;59.050;17.416;2023-07-29T12:17:00;99697.41;;;24.05;45.62
12666;BME280;58531;59.050;17.416;2023-07-29T12:19:31;99705.72;;;24.22;44.90
12666;BME280;58531;59.050;17.416;2023-07-29T12:21:58;99698.75;;;24.36;43.85
12666;BME280;58531;59.050;17.416;2023-07-29T12:24:25;99695.22;;;24.11;47.66
12666;BME280;58531;59.050;17.416;2023-07-29T12:26:54;99699.50;;;24.29;45.68
12666;BME280;58531;59.050;17.416;2023-07-29T12:29:21;99707.31;;;24.40;45.86
12666;BME280;58531;59.050;17.416;2023-07-29T12:31:49;99703.13;;;24.39;42.95
12666;BME280;58531;59.050;17.416;2023-07-29T12:34:25;99702.97;;;24.22;44.32
12666;BME280;58531;59.050;17.416;2023-07-29T12:36:52;99699.69;;;24.39;44.87
12666;BME280;58531;59.050;17.416;2023-07-29T12:39:20;99693.13;;;24.49;47.26
12666;BME280;58531;59.050;17.416;2023-07-29T12:41:48;99696.88;;;24.61;45.49
12666;BME280;58531;59.050;17.416;2023-07-29T12:44:17;99689.22;;;24.60;43.91
12666;BME280;58531;59.050;17.416;2023-07-29T12:46:44;99690.38;;;24.49;44.00
12666;BME280;58531;59.050;17.416;2023-07-29T12:49:11;99688.88;;;24.56;45.87
12666;BME280;58531;59.050;17.416;2023-07-29T12:51:38;99688.28;;;24.72;44.63
12666;BME280;58531;59.050;17.416;2023-07-29T12:54:05;99692.19;;;24.86;46.08